F/V Jeremi Simon — FHAF — position and weather

sailwx.info

Track history (hours):
 
Tides and Currents Weather Stations Pressure Air Temp Water Temp Dewpoint Dewpoint Depression Visibility Wind Speed Wind Dir Waves Ship Positions

F/V Jeremi Simon

Last reported at 2017-Oct-19 14:33 UTC. Time now 2017-Oct-19 20:29 UTC.
Position N 46°42' W 001°57'.

Length 20 m.

Type: Other ship. MMSI: 227415000.

Date/timePositionNaut miles runAvg speedWind from/ knotsBaromVisibWave heightAir tempDewpointWater temp
2017-Oct-19 14:33N 46°42' W 001°57'0 0.0
2017-Oct-19 14:30N 46°42' W 001°57'0 0.0
2017-Oct-19 14:00N 46°42' W 001°57'0 0.2
2017-Oct-19 13:30N 46°42' W 001°57'2 5.0
2017-Oct-19 13:00N 46°40' W 001°59'5 9.8
2017-Oct-19 12:30N 46°36' W 002°03'510.1
2017-Oct-19 12:00N 46°31' W 002°06'2 4.6
2017-Oct-19 11:30N 46°29' W 002°06'3 5.9
2017-Oct-19 10:55N 46°32' W 002°08'2 3.8
2017-Oct-19 10:30N 46°33' W 002°09'1 2.5
2017-Oct-19 10:00N 46°32' W 002°10'1 2.1
2017-Oct-19 09:30N 46°33' W 002°10'3 5.9
2017-Oct-19 09:00N 46°36' W 002°12'1 2.3
2017-Oct-19 08:29N 46°36' W 002°14'2 4.4
2017-Oct-19 07:59N 46°34' W 002°12'1 1.6
2017-Oct-19 07:30N 46°34' W 002°11'2 4.0
2017-Oct-19 07:00N 46°35' W 002°13'3 5.0
2017-Oct-19 06:30N 46°34' W 002°11'1 1.9
2017-Oct-19 05:53N 46°33' W 002°09'1 1.4
2017-Oct-19 05:30N 46°33' W 002°09'5 9.4
2017-Oct-19 05:00N 46°37' W 002°04'5 9.2
2017-Oct-19 04:30N 46°40' W 001°59'3 0.2
2017-Oct-18 17:06N 46°42' W 001°57'0 0.0
2017-Oct-18 16:40N 46°42' W 001°57'0 0.0
2017-Oct-18 16:13N 46°42' W 001°57'0 0.3
2017-Oct-18 16:00N 46°42' W 001°57'0 0.0
2017-Oct-18 15:30N 46°42' W 001°57'0 0.0
2017-Oct-18 15:00N 46°42' W 001°57'8 7.8
2017-Oct-18 14:00N 46°35' W 002°03'4 8.3
2017-Oct-18 13:30N 46°32' W 002°06'1 2.1
2017-Oct-18 13:00N 46°32' W 002°08'2 4.5
2017-Oct-18 12:30N 46°34' W 002°10'1 1.4
2017-Oct-18 11:57N 46°34' W 002°11'2 4.2
2017-Oct-18 11:30N 46°33' W 002°09'1 1.7
2017-Oct-18 11:00N 46°32' W 002°08'1 1.5
2017-Oct-18 10:30N 46°33' W 002°08'3 3.9
2017-Oct-18 09:51N 46°34' W 002°11'1 3.7
2017-Oct-18 09:30N 46°33' W 002°10'2 4.4
2017-Oct-18 09:00N 46°32' W 002°08'1 2.2
2017-Oct-18 08:30N 46°33' W 002°09'2 3.8
2017-Oct-18 07:59N 46°34' W 002°11'1 1.1
2017-Oct-18 07:30N 46°34' W 002°11'2 4.7
2017-Oct-18 07:00N 46°32' W 002°09'2 2.8
2017-Oct-18 06:28N 46°33' W 002°10'0 0.6
2017-Oct-18 05:58N 46°33' W 002°10'1 2.8
2017-Oct-18 05:30N 46°34' W 002°09'5 9.3
2017-Oct-18 05:00N 46°37' W 002°04'5 9.2
2017-Oct-18 04:28N 46°40' W 001°59'2 4.1
2017-Oct-18 03:58N 46°42' W 001°57'0 0.0
2017-Oct-17 17:53N 46°42' W 001°57'0 0.1
2017-Oct-17 17:30N 46°42' W 001°57'0 0.0
2017-Oct-17 17:00N 46°42' W 001°57'2 3.9
2017-Oct-17 16:30N 46°41' W 001°59'5 9.6
2017-Oct-17 16:00N 46°39' W 002°06'3 6.4
2017-Oct-17 15:30N 46°38' W 002°10'0 0.4
2017-Oct-17 15:00N 46°38' W 002°10'2 3.8
2017-Oct-17 14:28N 46°37' W 002°13'1 2.7
2017-Oct-17 14:00N 46°36' W 002°13'2 3.2
2017-Oct-17 13:19N 46°34' W 002°10'1 4.2
2017-Oct-17 12:59N 46°35' W 002°12'2 3.5
2017-Oct-17 12:30N 46°36' W 002°14'1 2.4
2017-Oct-17 12:00N 46°35' W 002°13'2 3.1
2017-Oct-17 11:24N 46°34' W 002°11'2 4.0
2017-Oct-17 10:58N 46°35' W 002°13'1 2.2
2017-Oct-17 10:18N 46°36' W 002°12'0 1.3
2017-Oct-17 09:58N 46°36' W 002°11'1 1.1
2017-Oct-17 09:24N 46°36' W 002°10'2 4.1
2017-Oct-17 08:56N 46°36' W 002°13'2 4.6
2017-Oct-17 08:27N 46°34' W 002°11'0 0.6
2017-Oct-17 07:50N 46°34' W 002°11'1 3.9
2017-Oct-17 07:28N 46°35' W 002°12'2 3.9
2017-Oct-17 06:57N 46°36' W 002°14'2 4.5
2017-Oct-17 06:30N 46°35' W 002°12'2 3.0
2017-Oct-17 05:51N 46°33' W 002°10'1 1.5
2017-Oct-17 05:29N 46°34' W 002°09'5 9.5
2017-Oct-17 05:00N 46°37' W 002°04'5 9.4
2017-Oct-17 04:30N 46°40' W 001°59'3 5.2
2017-Oct-17 04:00N 46°42' W 001°57'0 0.0
2017-Oct-15 14:44N 46°42' W 001°57'0 0.0
2017-Oct-15 14:00N 46°42' W 001°57'0 0.2
2017-Oct-15 13:30N 46°42' W 001°56'1 1.0
2017-Oct-15 13:00N 46°42' W 001°57'3 5.3
2017-Oct-15 12:30N 46°40' W 002°01'3 6.3
2017-Oct-15 12:00N 46°39' W 002°05'3 6.5
2017-Oct-15 11:30N 46°38' W 002°09'4 4.5
2017-Oct-15 10:40N 46°36' W 002°14'0 0.9
2017-Oct-15 10:28N 46°36' W 002°14'1 2.5
2017-Oct-15 09:59N 46°35' W 002°12'2 3.8
2017-Oct-15 09:30N 46°34' W 002°10'1 1.5
2017-Oct-15 09:00N 46°34' W 002°10'2 4.0
2017-Oct-15 08:30N 46°35' W 002°12'1 2.6
2017-Oct-15 08:00N 46°36' W 002°14'3 5.9
2017-Oct-15 07:30N 46°36' W 002°18'4 8.0
2017-Oct-15 07:00N 46°34' W 002°13'3 6.3
2017-Oct-15 06:30N 46°31' W 002°10'4 6.4
2017-Oct-15 05:57N 46°35' W 002°12'0 0.3
2017-Oct-15 05:30N 46°34' W 002°12'0 0.9
2017-Oct-15 04:58N 46°34' W 002°12'0 0.8
2017-Oct-15 04:30N 46°34' W 002°11'0 0.8
2017-Oct-15 03:59N 46°34' W 002°11'0 0.8
2017-Oct-15 03:30N 46°34' W 002°10'5 9.8
2017-Oct-15 03:00N 46°37' W 002°05'5 9.9
2017-Oct-15 02:30N 46°40' W 001°59'3 5.2
2017-Oct-15 02:00N 46°42' W 001°57'0 0.0
2017-Oct-13 09:09N 46°42' W 001°57'0 0.0
2017-Oct-12 18:05N 46°42' W 001°57'0 0.0
2017-Oct-12 17:51N 46°42' W 001°57'0 0.0
2017-Oct-12 17:25N 46°42' W 001°57'0 0.2
2017-Oct-12 17:00N 46°42' W 001°56'0 0.0
2017-Oct-12 16:30N 46°42' W 001°56'0 0.9
2017-Oct-12 16:00N 46°42' W 001°57'2 3.5
2017-Oct-12 15:30N 46°40' W 001°59'2 4.9
2017-Oct-12 15:00N 46°39' W 002°02'5 8.8
2017-Oct-12 14:28N 46°36' W 002°08'3 5.4
2017-Oct-12 13:58N 46°35' W 002°11'0 0.1
2017-Oct-12 13:23N 46°35' W 002°11'0 0.1
2017-Oct-12 12:58N 46°35' W 002°11'0 0.2
2017-Oct-12 12:29N 46°35' W 002°11'3 2.7
2017-Oct-12 11:26N 46°36' W 002°15'2 3.9
2017-Oct-12 10:58N 46°35' W 002°13'1 2.2
2017-Oct-12 10:18N 46°34' W 002°12'1 1.9
2017-Oct-12 09:58N 46°34' W 002°11'2 4.4
2017-Oct-12 09:29N 46°35' W 002°13'1 2.3
2017-Oct-12 08:56N 46°36' W 002°15'1 3.1
2017-Oct-12 08:29N 46°35' W 002°13'2 3.4
2017-Oct-12 08:00N 46°34' W 002°12'1 1.5
2017-Oct-12 07:30N 46°34' W 002°11'2 3.1
2017-Oct-12 07:00N 46°35' W 002°13'1 1.6
2017-Oct-12 06:28N 46°34' W 002°12'3 5.4
2017-Oct-12 06:00N 46°32' W 002°11'3 5.2
2017-Oct-12 05:29N 46°34' W 002°09'4 7.9
2017-Oct-12 04:59N 46°37' W 002°05'4 8.1
2017-Oct-12 04:28N 46°40' W 002°00'3 0.1
2017-Oct-10 13:19N 46°42' W 001°57'0 0.0
2017-Oct-10 13:00N 46°42' W 001°57'0 0.0
2017-Oct-10 12:30N 46°42' W 001°57'0 0.0
2017-Oct-10 12:00N 46°42' W 001°57'0 0.0
2017-Oct-10 11:30N 46°42' W 001°57'0 0.0
2017-Oct-10 11:00N 46°42' W 001°57'2 3.6
2017-Oct-10 10:30N 46°40' W 001°57'510.0
2017-Oct-10 10:00N 46°35' W 001°55'510.1
2017-Oct-10 09:30N 46°30' W 001°52'4 7.0
2017-Oct-10 09:00N 46°29' W 001°48'1 1.2
2017-Oct-10 08:30N 46°30' W 001°47'0 0.0
2017-Oct-10 08:00N 46°30' W 001°47'0 0.0
2017-Oct-10 07:30N 46°30' W 001°47'0 0.0
2017-Oct-10 07:00N 46°30' W 001°47'0 0.0
2017-Oct-10 06:30N 46°30' W 001°47'1 2.6
2017-Oct-10 06:00N 46°29' W 001°47'1 1.4
2017-Oct-10 05:30N 46°28' W 001°47'4 7.8
2017-Oct-10 05:00N 46°24' W 001°46'4 7.9
2017-Oct-10 04:30N 46°20' W 001°46'  
Track history (hours):
 
Tides and Currents Weather Stations Pressure Air Temp Water Temp Dewpoint Dewpoint Depression Visibility Wind Speed Wind Dir Waves Ship Positions

F/V Jeremi Simon

Last reported at 2017-Oct-19 14:33 UTC. Time now 2017-Oct-19 20:29 UTC.
Position N 46°42' W 001°57'.

Length 20 m.

Type: Other ship. MMSI: 227415000.

Date/timePositionNaut miles runAvg speedWind from/ knotsBaromVisibWave heightAir tempDewpointWater temp
2017-Oct-19 14:33N 46°42' W 001°57'0 0.0
2017-Oct-19 14:30N 46°42' W 001°57'0 0.0
2017-Oct-19 14:00N 46°42' W 001°57'0 0.2
2017-Oct-19 13:30N 46°42' W 001°57'2 5.0
2017-Oct-19 13:00N 46°40' W 001°59'5 9.8
2017-Oct-19 12:30N 46°36' W 002°03'510.1
2017-Oct-19 12:00N 46°31' W 002°06'2 4.6
2017-Oct-19 11:30N 46°29' W 002°06'3 5.9
2017-Oct-19 10:55N 46°32' W 002°08'2 3.8
2017-Oct-19 10:30N 46°33' W 002°09'1 2.5
2017-Oct-19 10:00N 46°32' W 002°10'1 2.1
2017-Oct-19 09:30N 46°33' W 002°10'3 5.9
2017-Oct-19 09:00N 46°36' W 002°12'1 2.3
2017-Oct-19 08:29N 46°36' W 002°14'2 4.4
2017-Oct-19 07:59N 46°34' W 002°12'1 1.6
2017-Oct-19 07:30N 46°34' W 002°11'2 4.0
2017-Oct-19 07:00N 46°35' W 002°13'3 5.0
2017-Oct-19 06:30N 46°34' W 002°11'1 1.9
2017-Oct-19 05:53N 46°33' W 002°09'1 1.4
2017-Oct-19 05:30N 46°33' W 002°09'5 9.4
2017-Oct-19 05:00N 46°37' W 002°04'5 9.2
2017-Oct-19 04:30N 46°40' W 001°59'3 0.2
2017-Oct-18 17:06N 46°42' W 001°57'0 0.0
2017-Oct-18 16:40N 46°42' W 001°57'0 0.0
2017-Oct-18 16:13N 46°42' W 001°57'0 0.3
2017-Oct-18 16:00N 46°42' W 001°57'0 0.0
2017-Oct-18 15:30N 46°42' W 001°57'0 0.0
2017-Oct-18 15:00N 46°42' W 001°57'8 7.8
2017-Oct-18 14:00N 46°35' W 002°03'4 8.3
2017-Oct-18 13:30N 46°32' W 002°06'1 2.1
2017-Oct-18 13:00N 46°32' W 002°08'2 4.5
2017-Oct-18 12:30N 46°34' W 002°10'1 1.4
2017-Oct-18 11:57N 46°34' W 002°11'2 4.2
2017-Oct-18 11:30N 46°33' W 002°09'1 1.7
2017-Oct-18 11:00N 46°32' W 002°08'1 1.5
2017-Oct-18 10:30N 46°33' W 002°08'3 3.9
2017-Oct-18 09:51N 46°34' W 002°11'1 3.7
2017-Oct-18 09:30N 46°33' W 002°10'2 4.4
2017-Oct-18 09:00N 46°32' W 002°08'1 2.2
2017-Oct-18 08:30N 46°33' W 002°09'2 3.8
2017-Oct-18 07:59N 46°34' W 002°11'1 1.1
2017-Oct-18 07:30N 46°34' W 002°11'2 4.7
2017-Oct-18 07:00N 46°32' W 002°09'2 2.8
2017-Oct-18 06:28N 46°33' W 002°10'0 0.6
2017-Oct-18 05:58N 46°33' W 002°10'1 2.8
2017-Oct-18 05:30N 46°34' W 002°09'5 9.3
2017-Oct-18 05:00N 46°37' W 002°04'5 9.2
2017-Oct-18 04:28N 46°40' W 001°59'2 4.1
2017-Oct-18 03:58N 46°42' W 001°57'0 0.0
2017-Oct-17 17:53N 46°42' W 001°57'0 0.1
2017-Oct-17 17:30N 46°42' W 001°57'0 0.0
2017-Oct-17 17:00N 46°42' W 001°57'2 3.9
2017-Oct-17 16:30N 46°41' W 001°59'5 9.6
2017-Oct-17 16:00N 46°39' W 002°06'3 6.4
2017-Oct-17 15:30N 46°38' W 002°10'0 0.4
2017-Oct-17 15:00N 46°38' W 002°10'2 3.8
2017-Oct-17 14:28N 46°37' W 002°13'1 2.7
2017-Oct-17 14:00N 46°36' W 002°13'2 3.2
2017-Oct-17 13:19N 46°34' W 002°10'1 4.2
2017-Oct-17 12:59N 46°35' W 002°12'2 3.5
2017-Oct-17 12:30N 46°36' W 002°14'1 2.4
2017-Oct-17 12:00N 46°35' W 002°13'2 3.1
2017-Oct-17 11:24N 46°34' W 002°11'2 4.0
2017-Oct-17 10:58N 46°35' W 002°13'1 2.2
2017-Oct-17 10:18N 46°36' W 002°12'0 1.3
2017-Oct-17 09:58N 46°36' W 002°11'1 1.1
2017-Oct-17 09:24N 46°36' W 002°10'2 4.1
2017-Oct-17 08:56N 46°36' W 002°13'2 4.6
2017-Oct-17 08:27N 46°34' W 002°11'0 0.6
2017-Oct-17 07:50N 46°34' W 002°11'1 3.9
2017-Oct-17 07:28N 46°35' W 002°12'2 3.9
2017-Oct-17 06:57N 46°36' W 002°14'2 4.5
2017-Oct-17 06:30N 46°35' W 002°12'2 3.0
2017-Oct-17 05:51N 46°33' W 002°10'1 1.5
2017-Oct-17 05:29N 46°34' W 002°09'5 9.5
2017-Oct-17 05:00N 46°37' W 002°04'5 9.4
2017-Oct-17 04:30N 46°40' W 001°59'3 5.2
2017-Oct-17 04:00N 46°42' W 001°57'0 0.0
2017-Oct-15 14:44N 46°42' W 001°57'0 0.0
2017-Oct-15 14:00N 46°42' W 001°57'0 0.2
2017-Oct-15 13:30N 46°42' W 001°56'1 1.0
2017-Oct-15 13:00N 46°42' W 001°57'3 5.3
2017-Oct-15 12:30N 46°40' W 002°01'3 6.3
2017-Oct-15 12:00N 46°39' W 002°05'3 6.5
2017-Oct-15 11:30N 46°38' W 002°09'4 4.5
2017-Oct-15 10:40N 46°36' W 002°14'0 0.9
2017-Oct-15 10:28N 46°36' W 002°14'1 2.5
2017-Oct-15 09:59N 46°35' W 002°12'2 3.8
2017-Oct-15 09:30N 46°34' W 002°10'1 1.5
2017-Oct-15 09:00N 46°34' W 002°10'2 4.0
2017-Oct-15 08:30N 46°35' W 002°12'1 2.6
2017-Oct-15 08:00N 46°36' W 002°14'3 5.9
2017-Oct-15 07:30N 46°36' W 002°18'4 8.0
2017-Oct-15 07:00N 46°34' W 002°13'3 6.3
2017-Oct-15 06:30N 46°31' W 002°10'4 6.4
2017-Oct-15 05:57N 46°35' W 002°12'0 0.3
2017-Oct-15 05:30N 46°34' W 002°12'0 0.9
2017-Oct-15 04:58N 46°34' W 002°12'0 0.8
2017-Oct-15 04:30N 46°34' W 002°11'0 0.8
2017-Oct-15 03:59N 46°34' W 002°11'0 0.8
2017-Oct-15 03:30N 46°34' W 002°10'5 9.8
2017-Oct-15 03:00N 46°37' W 002°05'5 9.9
2017-Oct-15 02:30N 46°40' W 001°59'3 5.2
2017-Oct-15 02:00N 46°42' W 001°57'0 0.0
2017-Oct-13 09:09N 46°42' W 001°57'0 0.0
2017-Oct-12 18:05N 46°42' W 001°57'0 0.0
2017-Oct-12 17:51N 46°42' W 001°57'0 0.0
2017-Oct-12 17:25N 46°42' W 001°57'0 0.2
2017-Oct-12 17:00N 46°42' W 001°56'0 0.0
2017-Oct-12 16:30N 46°42' W 001°56'0 0.9
2017-Oct-12 16:00N 46°42' W 001°57'2 3.5
2017-Oct-12 15:30N 46°40' W 001°59'2 4.9
2017-Oct-12 15:00N 46°39' W 002°02'5 8.8
2017-Oct-12 14:28N 46°36' W 002°08'3 5.4
2017-Oct-12 13:58N 46°35' W 002°11'0 0.1
2017-Oct-12 13:23N 46°35' W 002°11'0 0.1
2017-Oct-12 12:58N 46°35' W 002°11'0 0.2
2017-Oct-12 12:29N 46°35' W 002°11'3 2.7
2017-Oct-12 11:26N 46°36' W 002°15'2 3.9
2017-Oct-12 10:58N 46°35' W 002°13'1 2.2
2017-Oct-12 10:18N 46°34' W 002°12'1 1.9
2017-Oct-12 09:58N 46°34' W 002°11'2 4.4
2017-Oct-12 09:29N 46°35' W 002°13'1 2.3
2017-Oct-12 08:56N 46°36' W 002°15'1 3.1
2017-Oct-12 08:29N 46°35' W 002°13'2 3.4
2017-Oct-12 08:00N 46°34' W 002°12'1 1.5
2017-Oct-12 07:30N 46°34' W 002°11'2 3.1
2017-Oct-12 07:00N 46°35' W 002°13'1 1.6
2017-Oct-12 06:28N 46°34' W 002°12'3 5.4
2017-Oct-12 06:00N 46°32' W 002°11'3 5.2
2017-Oct-12 05:29N 46°34' W 002°09'4 7.9
2017-Oct-12 04:59N 46°37' W 002°05'4 8.1
2017-Oct-12 04:28N 46°40' W 002°00'3 0.1
2017-Oct-10 13:19N 46°42' W 001°57'0 0.0
2017-Oct-10 13:00N 46°42' W 001°57'0 0.0
2017-Oct-10 12:30N 46°42' W 001°57'0 0.0
2017-Oct-10 12:00N 46°42' W 001°57'0 0.0
2017-Oct-10 11:30N 46°42' W 001°57'0 0.0
2017-Oct-10 11:00N 46°42' W 001°57'2 3.6
2017-Oct-10 10:30N 46°40' W 001°57'510.0
2017-Oct-10 10:00N 46°35' W 001°55'510.1
2017-Oct-10 09:30N 46°30' W 001°52'4 7.0
2017-Oct-10 09:00N 46°29' W 001°48'1 1.2
2017-Oct-10 08:30N 46°30' W 001°47'0 0.0
2017-Oct-10 08:00N 46°30' W 001°47'0 0.0
2017-Oct-10 07:30N 46°30' W 001°47'0 0.0
2017-Oct-10 07:00N 46°30' W 001°47'0 0.0
2017-Oct-10 06:30N 46°30' W 001°47'1 2.6
2017-Oct-10 06:00N 46°29' W 001°47'1 1.4
2017-Oct-10 05:30N 46°28' W 001°47'4 7.8
2017-Oct-10 05:00N 46°24' W 001°46'4 7.9
2017-Oct-10 04:30N 46°20' W 001°46'  

Dump ship's entire track history